Main page
METAR-TAF:

METAR-TAF

Airports :

Corumbá International Airport

Corumbá, Mato Grosso do Sul, Brazil

latitude: 19-05S, longitude: 057-30W, elevation: 130 m

Current weather observation

The report was made 11 hours and 15 minutes ago, at 21:00 UTC
Wind 9 kt from the South/Southwest, varying between South and West/Southwest
Temperature 18°C
Humidity 20%
Pressure 1023 hPa
Visibility 10 km or more
no clouds below 1500 m and no cumulonimbus

METAR: SBCR 292100Z 21009KT 180V240 CAVOK 18/M05 Q1023

Time: 04:15 (08:15 UTC)

Forecast

The report was made 6 hours and 15 minutes ago, at 02:00 UTC
Forecast valid from 30 at 06 UTC to 31 at 06 UTC
Wind 5 kt from the South/Southeast
Visibility 10 km or more
no clouds below 1500 m and no cumulonimbus
Becoming
from 30 at 23 UTC to 31 at 01 UTC
Wind 5 kt from the Southwest

TAF: SBCR 300200Z 3006/3106 15005KT CAVOK TN11/3010Z TX23/3017Z BECMG 3023/3101 23005KT RMK PGN

Weather observations and forecasts of more than 4000 airports (METAR and TAF reports).

The available stations are represented by yellow and red dots on the map.

Hover mouse over dot to see the name of the station.

Then click to see weather observations and forecasts.

To change the map : click on the green buttons with a black cross to zoom in, on the green button with a dash to zoom out, or on the green arrows for adjacent maps.


METAR-TAF: